Time;durP1;ratioP1;P1;durP2;ratioP2;P2;SDS_P1;SDS_P2;PMS_P1;PMS_P2;Temp;Humidity;BMP_temperature;BMP_pressure;BME280_temperature;BME280_humidity;BME280_pressure;Samples;Min_cycle;Max_cycle;Signal;HPM_P1;HPM_P2
2023/12/17 00:02:03;;;;;;;0.00;0.00;;;12.60;76.80;;;;;;4799638;29;20248;-33
2023/12/17 00:04:30;;;;;;;0.00;0.00;;;12.60;76.80;;;;;;4801851;29;20575;-32
2023/12/17 00:06:59;;;;;;;0.00;0.00;;;12.60;76.80;;;;;;4801627;29;20324;-35
2023/12/17 00:09:28;;;;;;;0.00;0.00;;;12.60;76.80;;;;;;4801349;29;20217;-35
2023/12/17 00:11:55;;;;;;;0.00;0.00;;;12.60;76.80;;;;;;4801541;29;20715;-31
2023/12/17 00:14:25;;;;;;;0.00;0.00;;;12.60;76.80;;;;;;4800392;29;20229;-33
2023/12/17 00:16:53;;;;;;;0.00;0.00;;;12.60;76.70;;;;;;4799810;29;20758;-35
2023/12/17 00:19:20;;;;;;;0.00;0.00;;;12.60;76.80;;;;;;4801226;29;20216;-28
2023/12/17 00:21:47;;;;;;;0.00;0.00;;;12.60;76.80;;;;;;4800534;29;20244;-33
2023/12/17 00:24:17;;;;;;;0.00;0.00;;;12.60;76.80;;;;;;4804968;29;20304;-34
2023/12/17 00:26:49;;;;;;;0.00;0.00;;;12.60;76.80;;;;;;4803798;29;20303;-35
2023/12/17 00:29:16;;;;;;;0.00;0.00;;;12.60;76.80;;;;;;4802371;29;20953;-33
2023/12/17 00:31:48;;;;;;;0.00;0.00;;;12.60;76.90;;;;;;4803260;29;20690;-33
2023/12/17 00:34:15;;;;;;;0.00;0.00;;;12.60;77.00;;;;;;4786726;29;20229;-35
2023/12/17 00:36:47;;;;;;;0.00;0.00;;;12.60;76.90;;;;;;4785189;30;20328;-36
2023/12/17 00:39:17;;;;;;;0.00;0.00;;;12.60;76.90;;;;;;4785234;30;20209;-20
2023/12/17 00:41:46;;;;;;;0.00;0.00;;;12.60;76.90;;;;;;4793002;29;20236;-20
2023/12/17 00:44:18;;;;;;;0.00;0.00;;;12.60;76.90;;;;;;4804101;29;20802;-20
2023/12/17 00:46:48;;;;;;;0.00;0.00;;;12.60;77.00;;;;;;4804483;29;20205;-20
2023/12/17 00:49:17;;;;;;;0.00;0.00;;;12.60;77.00;;;;;;4804476;29;20217;-20
2023/12/17 00:51:45;;;;;;;0.00;0.00;;;12.60;77.10;;;;;;4804032;29;20940;-20
2023/12/17 00:54:17;;;;;;;0.00;0.00;;;12.60;77.10;;;;;;4802547;29;20229;-20
2023/12/17 00:56:47;;;;;;;0.00;0.00;;;12.60;77.10;;;;;;4803224;29;20589;-20
2023/12/17 00:59:15;;;;;;;0.00;0.00;;;12.60;77.00;;;;;;4803786;29;20298;-21
2023/12/17 01:01:46;;;;;;;0.00;0.00;;;12.60;77.00;;;;;;4803024;29;20301;-20
2023/12/17 01:04:13;;;;;;;0.00;0.00;;;12.60;76.90;;;;;;4802868;29;20212;-20
2023/12/17 01:06:43;;;;;;;0.00;0.00;;;12.60;77.00;;;;;;4802865;29;20213;-20
2023/12/17 01:09:10;;;;;;;0.00;0.00;;;12.60;77.00;;;;;;4804142;29;20605;-20
2023/12/17 01:11:42;;;;;;;0.00;0.00;;;12.60;77.00;;;;;;4804344;29;20231;-20
2023/12/17 01:14:11;;;;;;;0.00;0.00;;;12.60;77.10;;;;;;4802036;29;20698;-19
2023/12/17 01:16:44;;;;;;;0.00;0.00;;;12.60;77.10;;;;;;4804374;29;20209;-19
2023/12/17 01:19:13;;;;;;;0.00;0.00;;;12.60;77.20;;;;;;4803744;29;20695;-20
2023/12/17 01:21:40;;;;;;;0.00;0.00;;;12.60;77.10;;;;;;4802843;29;20229;-20
2023/12/17 01:24:10;;;;;;;0.00;0.00;;;12.60;77.10;;;;;;4803965;29;20692;-20
2023/12/17 01:26:37;;;;;;;0.00;0.00;;;12.60;77.10;;;;;;4801424;29;20232;-20
2023/12/17 01:29:09;;;;;;;0.00;0.00;;;12.60;77.10;;;;;;4801732;29;20225;-20
2023/12/17 01:31:39;;;;;;;0.00;0.00;;;12.60;77.20;;;;;;4816832;29;20710;-20
2023/12/17 01:34:08;;;;;;;0.00;0.00;;;12.60;77.20;;;;;;4802759;29;20237;-20
2023/12/17 01:36:38;;;;;;;0.00;0.00;;;12.60;77.10;;;;;;4801347;29;20348;-20
2023/12/17 01:39:05;;;;;;;0.00;0.00;;;12.60;77.10;;;;;;4803866;29;20201;-20
2023/12/17 01:41:37;;;;;;;0.00;0.00;;;12.60;77.20;;;;;;4802352;29;20209;-20
2023/12/17 01:44:04;;;;;;;0.00;0.00;;;12.60;77.20;;;;;;4802834;29;20213;-20
2023/12/17 01:46:32;;;;;;;0.00;0.00;;;12.60;77.10;;;;;;4803815;29;20225;-20
2023/12/17 01:48:59;;;;;;;0.00;0.00;;;12.60;77.20;;;;;;4803632;29;20758;-20
2023/12/17 01:51:27;;;;;;;0.00;0.00;;;12.60;77.20;;;;;;4802384;29;20266;-21
2023/12/17 01:53:59;;;;;;;0.00;0.00;;;12.60;77.20;;;;;;4803473;29;20695;-20
2023/12/17 01:56:30;;;;;;;0.00;0.00;;;12.60;77.20;;;;;;4803772;29;20672;-20
2023/12/17 01:58:57;;;;;;;0.00;0.00;;;12.60;77.10;;;;;;4801530;29;20601;-20
2023/12/17 02:01:27;;;;;;;0.00;0.00;;;12.60;77.10;;;;;;4801897;29;20208;-20
2023/12/17 02:03:56;;;;;;;0.00;0.00;;;12.60;77.20;;;;;;4803247;29;20976;-20
2023/12/17 02:06:28;;;;;;;0.00;0.00;;;12.60;77.20;;;;;;4802064;29;21028;-20
2023/12/17 02:08:56;;;;;;;0.00;0.00;;;12.60;77.20;;;;;;4801922;29;20217;-20
2023/12/17 02:11:28;;;;;;;0.00;0.00;;;12.60;77.20;;;;;;4803152;29;20848;-20
2023/12/17 02:13:55;;;;;;;0.00;0.00;;;12.50;77.10;;;;;;4801004;29;20228;-20
2023/12/17 02:16:24;;;;;;;0.00;0.00;;;12.50;77.10;;;;;;4802874;29;20205;-20
2023/12/17 02:18:52;;;;;;;0.00;0.00;;;12.50;77.10;;;;;;4800978;29;20231;-20
2023/12/17 02:21:23;;;;;;;0.00;0.00;;;12.50;78.00;;;;;;4801120;29;20233;-20
2023/12/17 02:23:54;;;;;;;0.00;0.00;;;12.50;77.20;;;;;;4801244;29;20213;-26
2023/12/17 02:26:23;;;;;;;0.00;0.00;;;12.50;77.10;;;;;;4801560;29;20220;-20
2023/12/17 02:28:55;;;;;;;0.00;0.00;;;12.50;77.10;;;;;;4802651;29;20228;-19
2023/12/17 02:31:22;;;;;;;0.00;0.00;;;12.50;77.10;;;;;;4801626;29;20234;-20
2023/12/17 02:33:52;;;;;;;0.00;0.00;;;12.50;77.10;;;;;;4802973;29;20239;-20
2023/12/17 02:36:23;;;;;;;0.00;0.00;;;12.50;77.10;;;;;;4801607;29;20249;-20
2023/12/17 02:38:51;;;;;;;0.00;0.00;;;12.40;77.00;;;;;;4803058;29;20217;-34
2023/12/17 02:41:20;;;;;;;0.00;0.00;;;12.40;77.10;;;;;;4801187;29;20220;-33
2023/12/17 02:43:50;;;;;;;0.00;0.00;;;12.40;77.10;;;;;;4802888;29;20236;-20
2023/12/17 02:46:19;;;;;;;0.00;0.00;;;12.40;77.20;;;;;;4800674;29;20213;-21
2023/12/17 02:48:51;;;;;;;0.00;0.00;;;12.40;77.20;;;;;;4801175;29;20700;-20
2023/12/17 02:51:20;;;;;;;0.00;0.00;;;12.40;77.20;;;;;;4801025;29;20602;-20
2023/12/17 02:53:47;;;;;;;0.00;0.00;;;12.40;77.20;;;;;;4801113;29;20627;-20
2023/12/17 02:56:17;;;;;;;0.00;0.00;;;12.40;77.20;;;;;;4802392;29;20673;-20
2023/12/17 02:58:47;;;;;;;0.00;0.00;;;12.40;77.20;;;;;;4801184;29;20205;-20
2023/12/17 03:01:16;;;;;;;0.00;0.00;;;12.40;77.20;;;;;;4801856;29;20205;-23
2023/12/17 03:03:48;;;;;;;0.00;0.00;;;12.40;77.10;;;;;;4802238;29;20205;-20
2023/12/17 03:06:15;;;;;;;0.00;0.00;;;12.40;77.10;;;;;;4802293;29;20217;-20
2023/12/17 03:08:45;;;;;;;0.00;0.00;;;12.40;77.20;;;;;;4802744;29;20566;-20
2023/12/17 03:11:14;;;;;;;0.00;0.00;;;12.30;77.20;;;;;;4800915;29;20282;-20
2023/12/17 03:13:44;;;;;;;0.00;0.00;;;12.30;77.20;;;;;;4799442;29;20696;-20
2023/12/17 03:16:13;;;;;;;0.00;0.00;;;12.30;77.20;;;;;;4797908;29;20332;-20
2023/12/17 03:18:43;;;;;;;0.00;0.00;;;12.30;77.30;;;;;;4802060;29;20208;-20
2023/12/17 03:21:13;;;;;;;0.00;0.00;;;12.30;77.20;;;;;;4801780;29;20987;-21
2023/12/17 03:23:41;;;;;;;0.00;0.00;;;12.30;77.30;;;;;;4799496;29;20638;-20
2023/12/17 03:26:10;;;;;;;0.00;0.00;;;12.30;77.30;;;;;;4801650;29;20221;-20
2023/12/17 03:28:37;;;;;;;0.00;0.00;;;12.30;77.20;;;;;;4800732;29;20212;-20
2023/12/17 03:31:11;;;;;;;0.00;0.00;;;12.30;77.20;;;;;;4801030;29;20236;-20
2023/12/17 03:33:38;;;;;;;0.00;0.00;;;12.30;77.20;;;;;;4800808;29;20335;-20
2023/12/17 03:36:08;;;;;;;0.00;0.00;;;12.30;77.20;;;;;;4800497;29;20237;-21
2023/12/17 03:38:38;;;;;;;0.00;0.00;;;12.20;77.10;;;;;;4802086;29;20284;-20
2023/12/17 03:41:22;;;;;;;0.00;0.00;;;12.20;77.10;;;;;;4800633;29;20217;-20
2023/12/17 03:43:56;;;;;;;0.00;0.00;;;12.20;77.20;;;;;;4800165;29;20216;-20
2023/12/17 03:46:26;;;;;;;0.00;0.00;;;12.20;77.20;;;;;;4800189;29;20221;-20
2023/12/17 03:48:55;;;;;;;0.00;0.00;;;12.20;77.20;;;;;;4801600;29;20228;-20
2023/12/17 03:51:25;;;;;;;0.00;0.00;;;12.20;77.40;;;;;;4800252;29;20707;-20
2023/12/17 03:53:55;;;;;;;0.00;0.00;;;12.20;77.40;;;;;;4801448;29;20595;-21
2023/12/17 03:56:23;;;;;;;0.00;0.00;;;12.20;77.30;;;;;;4801366;29;20228;-21
2023/12/17 03:58:50;;;;;;;0.00;0.00;;;12.20;77.20;;;;;;4800710;29;20605;-20
2023/12/17 04:01:17;;;;;;;0.00;0.00;;;12.10;77.20;;;;;;4800749;29;20209;-20
2023/12/17 04:03:45;;;;;;;0.00;0.00;;;12.10;77.20;;;;;;4785190;29;20217;-20
2023/12/17 04:06:12;;;;;;;0.00;0.00;;;12.10;77.30;;;;;;4799656;29;20244;-20
2023/12/17 04:08:39;;;;;;;0.00;0.00;;;12.10;77.20;;;;;;4800384;29;20241;-20
2023/12/17 04:11:06;;;;;;;0.00;0.00;;;12.10;77.20;;;;;;4801332;29;20205;-20
2023/12/17 04:13:36;;;;;;;0.00;0.00;;;12.10;77.20;;;;;;4799840;29;20252;-21
2023/12/17 04:16:06;;;;;;;0.00;0.00;;;12.10;77.20;;;;;;4784352;29;20209;-20
2023/12/17 04:18:35;;;;;;;0.00;0.00;;;12.10;77.20;;;;;;4799854;29;20213;-20
2023/12/17 04:21:03;;;;;;;0.00;0.00;;;12.10;77.20;;;;;;4785292;29;20209;-34
2023/12/17 04:23:30;;;;;;;0.00;0.00;;;12.10;77.20;;;;;;4799594;29;20240;-34
2023/12/17 04:25:57;;;;;;;0.00;0.00;;;12.10;77.20;;;;;;4799856;29;20514;-31
2023/12/17 04:28:27;;;;;;;0.00;0.00;;;12.00;77.20;;;;;;4801510;29;20220;-35
2023/12/17 04:30:56;;;;;;;0.00;0.00;;;12.10;77.30;;;;;;4799028;29;20216;-37
2023/12/17 04:33:26;;;;;;;0.00;0.00;;;12.00;77.20;;;;;;4800067;29;20225;-32
2023/12/17 04:35:53;;;;;;;0.00;0.00;;;12.00;77.20;;;;;;4800944;29;20345;-32
2023/12/17 04:38:21;;;;;;;0.00;0.00;;;12.00;77.10;;;;;;4799681;29;20217;-36
2023/12/17 04:40:48;;;;;;;0.00;0.00;;;12.00;77.20;;;;;;4799343;29;20221;-35
2023/12/17 04:43:15;;;;;;;0.00;0.00;;;12.00;77.20;;;;;;4799738;29;20600;-36
2023/12/17 04:45:42;;;;;;;0.00;0.00;;;12.00;77.20;;;;;;4800283;29;20261;-36
2023/12/17 04:48:17;;;;;;;0.00;0.00;;;12.00;77.20;;;;;;4801095;29;20235;-33
2023/12/17 04:50:44;;;;;;;0.00;0.00;;;11.90;77.10;;;;;;4799743;29;20213;-35
2023/12/17 04:53:16;;;;;;;0.00;0.00;;;11.90;77.20;;;;;;4800867;29;20763;-35
2023/12/17 04:55:46;;;;;;;0.00;0.00;;;11.90;77.20;;;;;;4799304;29;20308;-35
2023/12/17 04:58:13;;;;;;;0.00;0.00;;;11.90;77.20;;;;;;4799401;29;20250;-33
2023/12/17 05:00:40;;;;;;;0.00;0.00;;;11.90;77.20;;;;;;4800120;29;20214;-35
2023/12/17 05:03:09;;;;;;;0.00;0.00;;;11.90;77.20;;;;;;4798860;29;20215;-36
2023/12/17 05:05:37;;;;;;;0.00;0.00;;;11.90;77.30;;;;;;4799081;29;20228;-36
2023/12/17 05:08:06;;;;;;;0.00;0.00;;;11.90;77.20;;;;;;4800235;29;20233;-34
2023/12/17 05:10:34;;;;;;;0.00;0.00;;;11.90;77.20;;;;;;4817712;29;20623;-35
2023/12/17 05:13:03;;;;;;;0.00;0.00;;;11.90;77.20;;;;;;4817604;29;20217;-32
2023/12/17 05:15:33;;;;;;;0.00;0.00;;;11.90;77.20;;;;;;4803344;29;20229;-33
2023/12/17 05:18:00;;;;;;;0.00;0.00;;;11.80;77.00;;;;;;4803441;29;20209;-33
2023/12/17 05:20:28;;;;;;;0.00;0.00;;;11.80;76.90;;;;;;4802662;29;20296;-33
2023/12/17 05:22:55;;;;;;;0.00;0.00;;;11.70;76.90;;;;;;4803735;29;20224;-32
2023/12/17 05:25:25;;;;;;;0.00;0.00;;;11.70;76.90;;;;;;4802823;29;20221;-35
2023/12/17 05:27:54;;;;;;;0.00;0.00;;;11.70;77.10;;;;;;4788279;29;20204;-33
2023/12/17 05:30:22;;;;;;;0.00;0.00;;;11.70;77.10;;;;;;4801915;29;20216;-35
2023/12/17 05:32:50;;;;;;;0.00;0.00;;;11.70;77.10;;;;;;4802674;29;20293;-31
2023/12/17 05:35:20;;;;;;;0.00;0.00;;;11.60;77.10;;;;;;4803826;29;20337;-33
2023/12/17 05:37:52;;;;;;;0.00;0.00;;;11.60;77.10;;;;;;4803733;29;20248;-34
2023/12/17 05:40:22;;;;;;;0.00;0.00;;;11.60;77.10;;;;;;4802535;29;20232;-33
2023/12/17 05:42:51;;;;;;;0.00;0.00;;;11.60;77.10;;;;;;4802779;29;20220;-34
2023/12/17 05:45:21;;;;;;;0.00;0.00;;;11.60;77.10;;;;;;4803131;29;20218;-34
2023/12/17 05:47:50;;;;;;;0.00;0.00;;;11.60;77.10;;;;;;4803747;29;20216;-33
2023/12/17 05:50:17;;;;;;;0.00;0.00;;;11.60;77.20;;;;;;4803705;29;20220;-34
2023/12/17 05:52:50;;;;;;;0.00;0.00;;;11.60;77.10;;;;;;4802420;29;20213;-35
2023/12/17 05:55:20;;;;;;;0.00;0.00;;;11.50;77.00;;;;;;4802073;29;20229;-36
2023/12/17 05:57:51;;;;;;;0.00;0.00;;;11.50;76.90;;;;;;4800853;29;20240;-32
2023/12/17 06:00:21;;;;;;;0.00;0.00;;;11.50;77.00;;;;;;4802073;29;20204;-33
2023/12/17 06:02:50;;;;;;;0.00;0.00;;;11.50;77.00;;;;;;4801829;29;20752;-35
2023/12/17 06:05:20;;;;;;;0.00;0.00;;;11.40;76.90;;;;;;4803379;29;20240;-33
2023/12/17 06:07:51;;;;;;;0.00;0.00;;;11.40;76.90;;;;;;4787429;29;20220;-32
2023/12/17 06:10:23;;;;;;;0.00;0.00;;;11.40;76.90;;;;;;4803180;29;20216;-32
2023/12/17 06:12:53;;;;;;;0.00;0.00;;;11.40;77.00;;;;;;4803204;29;20213;-33
2023/12/17 06:15:20;;;;;;;0.00;0.00;;;11.30;76.90;;;;;;4802373;29;20252;-34
2023/12/17 06:17:52;;;;;;;0.00;0.00;;;11.30;76.90;;;;;;4801430;29;20300;-34
2023/12/17 06:20:22;;;;;;;0.00;0.00;;;11.30;76.90;;;;;;4801093;29;20225;-34
2023/12/17 06:22:52;;;;;;;0.00;0.00;;;11.20;76.90;;;;;;4801771;29;20675;-31
2023/12/17 06:25:21;;;;;;;0.00;0.00;;;11.20;76.80;;;;;;4802895;29;20308;-32
2023/12/17 06:27:51;;;;;;;0.00;0.00;;;11.20;76.80;;;;;;4801321;29;20273;-31
2023/12/17 06:30:19;;;;;;;0.00;0.00;;;11.20;76.80;;;;;;4802296;29;20244;-33
2023/12/17 06:32:46;;;;;;;0.00;0.00;;;11.10;76.70;;;;;;4801615;29;20671;-31
2023/12/17 06:35:19;;;;;;;0.00;0.00;;;11.10;77.10;;;;;;4802677;29;20237;-33
2023/12/17 06:37:46;;;;;;;0.00;0.00;;;11.10;77.50;;;;;;4802542;29;20992;-32
2023/12/17 06:40:16;;;;;;;0.00;0.00;;;11.10;76.80;;;;;;4802984;29;20208;-33
2023/12/17 06:42:43;;;;;;;0.00;0.00;;;11.00;76.70;;;;;;4802864;29;20233;-37
2023/12/17 06:45:11;;;;;;;0.00;0.00;;;11.00;76.80;;;;;;4802297;29;20672;-34
2023/12/17 06:47:40;;;;;;;0.00;0.00;;;11.00;76.90;;;;;;4799895;29;20209;-36
2023/12/17 06:50:13;;;;;;;0.00;0.00;;;11.00;76.90;;;;;;4792138;29;20225;-35
2023/12/17 06:52:40;;;;;;;0.00;0.00;;;10.90;76.90;;;;;;4787311;29;20795;-37
2023/12/17 06:55:10;;;;;;;0.00;0.00;;;10.90;76.90;;;;;;4787768;29;20629;-33
2023/12/17 06:57:46;;;;;;;0.00;0.00;;;10.90;77.00;;;;;;4790715;29;20197;-31
2023/12/17 07:00:15;;;;;;;0.00;0.00;;;10.90;77.00;;;;;;4794151;29;20221;-32
2023/12/17 07:02:46;;;;;;;0.00;0.00;;;10.90;76.90;;;;;;4800497;29;20806;-32
2023/12/17 07:05:13;;;;;;;0.00;0.00;;;10.90;76.90;;;;;;4796829;29;20625;-31
2023/12/17 07:07:43;;;;;;;0.00;0.00;;;10.90;76.90;;;;;;4793785;29;20682;-32
2023/12/17 07:10:14;;;;;;;0.00;0.00;;;10.90;76.90;;;;;;4784524;29;20225;-33
2023/12/17 07:12:44;;;;;;;0.00;0.00;;;10.90;76.90;;;;;;4794852;29;20781;-34
2023/12/17 07:15:11;;;;;;;0.00;0.00;;;10.80;76.80;;;;;;4798962;29;20263;-34
2023/12/17 07:17:39;;;;;;;0.00;0.00;;;10.80;76.90;;;;;;4784370;29;20689;-34
2023/12/17 07:20:10;;;;;;;0.00;0.00;;;10.80;77.00;;;;;;4787718;29;20287;-34
2023/12/17 07:22:38;;;;;;;0.00;0.00;;;10.80;77.00;;;;;;4796703;29;20205;-34
2023/12/17 07:25:09;;;;;;;0.00;0.00;;;10.90;77.10;;;;;;4792207;29;20214;-33
2023/12/17 07:27:36;;;;;;;0.00;0.00;;;10.80;77.00;;;;;;4810483;29;20209;-32
2023/12/17 07:30:08;;;;;;;0.00;0.00;;;10.80;77.00;;;;;;4797096;29;20300;-30
2023/12/17 07:32:38;;;;;;;0.00;0.00;;;10.80;77.00;;;;;;4781875;29;20656;-33
2023/12/17 07:35:09;;;;;;;0.00;0.00;;;10.80;77.00;;;;;;4786633;29;20575;-31
2023/12/17 07:37:36;;;;;;;0.00;0.00;;;10.80;77.10;;;;;;4800168;29;20727;-33
2023/12/17 07:40:07;;;;;;;0.00;0.00;;;10.80;77.10;;;;;;4798740;29;20213;-33
2023/12/17 07:42:36;;;;;;;0.00;0.00;;;10.80;77.10;;;;;;4792472;29;20210;-31
2023/12/17 07:45:04;;;;;;;0.00;0.00;;;10.80;77.10;;;;;;4791515;29;20209;-33
2023/12/17 07:47:32;;;;;;;0.00;0.00;;;10.80;77.10;;;;;;4785858;29;20222;-35
2023/12/17 07:50:03;;;;;;;0.00;0.00;;;10.80;77.10;;;;;;4797180;29;20767;-36
2023/12/17 07:52:30;;;;;;;0.00;0.00;;;10.80;77.00;;;;;;4767484;30;20230;-32
2023/12/17 07:54:59;;;;;;;0.00;0.00;;;10.80;77.00;;;;;;4781673;30;20225;-35
2023/12/17 07:57:28;;;;;;;0.00;0.00;;;10.80;77.10;;;;;;4809056;29;20209;-33
2023/12/17 07:59:55;;;;;;;0.00;0.00;;;10.80;77.00;;;;;;4790360;29;20237;-31
2023/12/17 08:02:22;;;;;;;0.00;0.00;;;10.80;77.00;;;;;;4782148;29;20205;-34
2023/12/17 08:04:51;;;;;;;0.00;0.00;;;10.70;76.90;;;;;;4797434;29;20578;-32
2023/12/17 08:07:18;;;;;;;0.00;0.00;;;10.70;76.90;;;;;;4799061;29;20205;-34
2023/12/17 08:09:46;;;;;;;0.00;0.00;;;10.70;76.90;;;;;;4800488;29;20209;-35
2023/12/17 08:12:13;;;;;;;0.00;0.00;;;10.70;76.90;;;;;;4787265;29;20298;-33
2023/12/17 08:14:43;;;;;;;0.00;0.00;;;10.60;76.80;;;;;;4781553;29;20267;-33
2023/12/17 08:17:14;;;;;;;0.00;0.00;;;10.60;76.90;;;;;;4782923;29;20209;-35
2023/12/17 08:19:44;;;;;;;0.00;0.00;;;10.70;77.00;;;;;;4797208;29;20828;-36
2023/12/17 08:22:13;;;;;;;0.00;0.00;;;10.60;76.90;;;;;;4798141;29;20217;-34
2023/12/17 08:24:40;;;;;;;0.00;0.00;;;10.60;76.90;;;;;;4799298;29;20209;-35
2023/12/17 08:27:10;;;;;;;0.00;0.00;;;10.60;76.90;;;;;;4798737;29;20274;-36
2023/12/17 08:29:37;;;;;;;0.00;0.00;;;10.60;76.90;;;;;;4787765;29;20297;-33
2023/12/17 08:32:05;;;;;;;0.00;0.00;;;10.60;76.80;;;;;;4782676;29;20551;-35
2023/12/17 08:34:32;;;;;;;0.00;0.00;;;10.60;76.80;;;;;;4795734;29;20308;-33
2023/12/17 08:36:59;;;;;;;0.00;0.00;;;10.50;76.70;;;;;;4798191;29;21024;-34
2023/12/17 08:39:29;;;;;;;0.00;0.00;;;10.50;76.70;;;;;;4795400;29;20682;-36
2023/12/17 08:41:59;;;;;;;0.00;0.00;;;10.50;76.70;;;;;;4790200;29;20209;-36
2023/12/17 08:44:28;;;;;;;0.00;0.00;;;10.50;76.70;;;;;;4802460;29;20308;-32
2023/12/17 08:46:58;;;;;;;0.00;0.00;;;10.50;76.60;;;;;;4800694;29;20224;-22
2023/12/17 08:49:28;;;;;;;0.00;0.00;;;10.40;76.60;;;;;;4801650;29;20932;-22
2023/12/17 08:51:58;;;;;;;0.00;0.00;;;10.40;76.60;;;;;;4790714;29;20271;-21
2023/12/17 08:54:30;;;;;;;0.00;0.00;;;10.40;76.60;;;;;;4790467;29;20295;-22
2023/12/17 08:57:02;;;;;;;0.00;0.00;;;10.40;76.70;;;;;;4800743;29;20241;-22
2023/12/17 08:59:31;;;;;;;0.00;0.00;;;10.40;76.70;;;;;;4786142;29;20201;-33
2023/12/17 09:01:58;;;;;;;0.00;0.00;;;10.30;76.60;;;;;;4790853;29;20234;-36
2023/12/17 09:04:28;;;;;;;0.00;0.00;;;10.30;76.60;;;;;;4798415;29;20693;-33
2023/12/17 09:06:55;;;;;;;0.00;0.00;;;10.30;76.60;;;;;;4811216;29;20233;-33
2023/12/17 09:09:22;;;;;;;0.00;0.00;;;10.30;76.60;;;;;;4801878;29;20209;-33
2023/12/17 09:11:52;;;;;;;0.00;0.00;;;10.30;76.60;;;;;;4793258;29;20231;-35
2023/12/17 09:14:25;;;;;;;0.00;0.00;;;10.20;76.70;;;;;;4785836;29;20225;-33
2023/12/17 09:16:57;;;;;;;0.00;0.00;;;10.20;76.60;;;;;;4774269;29;20229;-34
2023/12/17 09:19:27;;;;;;;0.00;0.00;;;10.20;76.50;;;;;;4801804;29;20216;-33
2023/12/17 09:21:55;;;;;;;0.00;0.00;;;10.20;76.50;;;;;;4799022;29;20763;-34
2023/12/17 09:24:22;;;;;;;0.00;0.00;;;10.10;76.50;;;;;;4798271;29;20812;-33
2023/12/17 09:26:50;;;;;;;0.00;0.00;;;10.10;76.50;;;;;;4801212;29;20744;-35
2023/12/17 09:29:17;;;;;;;0.00;0.00;;;10.10;76.70;;;;;;4784539;29;20528;-34
2023/12/17 09:31:45;;;;;;;0.00;0.00;;;10.10;76.60;;;;;;4797561;29;20229;-33
2023/12/17 09:34:15;;;;;;;0.00;0.00;;;10.10;76.60;;;;;;4797306;29;20220;-33
2023/12/17 09:36:45;;;;;;;0.00;0.00;;;10.00;76.50;;;;;;4799314;29;20284;-34
2023/12/17 09:39:15;;;;;;;0.00;0.00;;;10.00;76.50;;;;;;4790067;29;20229;-33
2023/12/17 09:41:45;;;;;;;0.00;0.00;;;10.00;76.60;;;;;;4800105;29;20213;-33
2023/12/17 09:44:15;;;;;;;0.00;0.00;;;10.00;76.60;;;;;;4792421;29;20770;-31
2023/12/17 09:46:44;;;;;;;0.00;0.00;;;10.00;76.60;;;;;;4793096;29;20216;-32
2023/12/17 09:49:14;;;;;;;0.00;0.00;;;10.00;76.60;;;;;;4800227;29;20244;-32
2023/12/17 09:51:46;;;;;;;0.00;0.00;;;10.00;76.70;;;;;;4791118;29;20597;-30
2023/12/17 09:54:13;;;;;;;0.00;0.00;;;10.00;76.80;;;;;;4767836;29;20214;-32
2023/12/17 09:56:47;;;;;;;0.00;0.00;;;10.00;76.80;;;;;;4799807;29;20233;-31
2023/12/17 09:59:17;;;;;;;0.00;0.00;;;10.00;76.80;;;;;;4799264;29;20212;-32
2023/12/17 10:01:45;;;;;;;0.00;0.00;;;10.10;76.80;;;;;;4788513;29;20222;-31
2023/12/17 10:04:24;;;;;;;0.00;0.00;;;10.00;76.70;;;;;;4783715;29;20217;-31
2023/12/17 10:06:54;;;;;;;0.00;0.00;;;10.10;76.80;;;;;;4784134;29;20217;-32
2023/12/17 10:09:21;;;;;;;0.00;0.00;;;10.00;76.60;;;;;;4781710;29;20616;-31
2023/12/17 10:11:48;;;;;;;0.00;0.00;;;10.10;76.70;;;;;;4795391;29;20236;-31
2023/12/17 10:14:23;;;;;;;0.00;0.00;;;10.00;76.60;;;;;;4785674;29;20297;-35
2023/12/17 10:16:53;;;;;;;0.00;0.00;;;10.10;76.80;;;;;;4792199;29;20237;-33
2023/12/17 10:19:20;;;;;;;0.00;0.00;;;10.10;76.80;;;;;;4799132;29;20228;-37
2023/12/17 10:21:49;;;;;;;0.00;0.00;;;10.10;76.80;;;;;;4789226;29;20241;-33
2023/12/17 10:24:33;;;;;;;0.00;0.00;;;10.10;76.90;;;;;;4791383;29;20312;-33
2023/12/17 10:27:17;;;;;;;0.00;0.00;;;10.10;76.80;;;;;;4793045;29;20220;-34
2023/12/17 10:29:52;;;;;;;0.00;0.00;;;10.10;76.80;;;;;;4788560;29;20209;-33
2023/12/17 10:32:24;;;;;;;0.00;0.00;;;10.10;76.80;;;;;;4771478;29;20216;-32
2023/12/17 10:34:53;;;;;;;0.00;0.00;;;10.20;76.90;;;;;;4797320;29;20227;-33
2023/12/17 10:37:25;;;;;;;0.00;0.00;;;10.20;76.90;;;;;;4786862;29;20705;-32
2023/12/17 10:39:56;;;;;;;0.00;0.00;;;10.20;76.90;;;;;;4783246;29;20301;-32
2023/12/17 10:42:31;;;;;;;0.00;0.00;;;10.20;76.90;;;;;;4782915;29;20210;-34
2023/12/17 10:45:00;;;;;;;0.00;0.00;;;10.20;76.80;;;;;;4794442;29;20219;-31
2023/12/17 10:47:33;;;;;;;0.00;0.00;;;10.30;76.90;;;;;;4800980;29;20278;-34
2023/12/17 10:50:01;;;;;;;0.00;0.00;;;10.30;76.90;;;;;;4794294;29;20209;-32
2023/12/17 10:52:31;;;;;;;0.00;0.00;;;10.30;76.90;;;;;;4794836;29;20597;-31
2023/12/17 10:55:01;;;;;;;0.00;0.00;;;10.30;76.90;;;;;;4800753;29;20236;-35
2023/12/17 10:57:34;;;;;;;0.00;0.00;;;10.30;76.90;;;;;;4802479;29;20335;-33
2023/12/17 11:00:04;;;;;;;0.00;0.00;;;10.30;76.80;;;;;;4799397;29;20254;-34
2023/12/17 11:02:32;;;;;;;0.00;0.00;;;10.40;76.80;;;;;;4800912;29;20314;-31
2023/12/17 11:05:05;;;;;;;0.00;0.00;;;10.40;76.80;;;;;;4800436;29;20691;-35
2023/12/17 11:07:35;;;;;;;0.00;0.00;;;10.40;76.80;;;;;;4792852;29;20236;-33
2023/12/17 11:10:15;;;;;;;0.00;0.00;;;10.40;76.90;;;;;;4797974;29;20319;-31
2023/12/17 11:12:46;;;;;;;0.00;0.00;;;10.40;76.90;;;;;;4801815;29;20217;-31
2023/12/17 11:15:23;;;;;;;0.00;0.00;;;10.50;76.90;;;;;;4795002;29;20216;-32
2023/12/17 11:17:55;;;;;;;0.00;0.00;;;10.50;76.90;;;;;;4799577;29;20216;-33
2023/12/17 11:20:33;;;;;;;0.00;0.00;;;10.50;76.90;;;;;;4794614;29;20324;-32
2023/12/17 11:23:07;;;;;;;0.00;0.00;;;10.50;76.90;;;;;;4791953;29;20217;-34
2023/12/17 11:25:34;;;;;;;0.00;0.00;;;10.50;76.80;;;;;;4793714;29;20299;-33
2023/12/17 11:28:02;;;;;;;0.00;0.00;;;10.60;77.00;;;;;;4798385;29;20205;-33
2023/12/17 11:30:34;;;;;;;0.00;0.00;;;10.60;77.00;;;;;;4789073;29;20213;-32
2023/12/17 11:33:04;;;;;;;0.00;0.00;;;10.60;76.90;;;;;;4783711;29;20216;-32
2023/12/17 11:35:32;;;;;;;0.00;0.00;;;10.60;76.90;;;;;;4792703;29;20211;-31
2023/12/17 11:38:05;;;;;;;0.00;0.00;;;10.60;76.90;;;;;;4800482;29;20232;-35
2023/12/17 11:40:36;;;;;;;0.00;0.00;;;10.70;77.00;;;;;;4799631;29;20205;-33
2023/12/17 11:43:06;;;;;;;0.00;0.00;;;10.70;76.90;;;;;;4798860;29;20209;-33
2023/12/17 11:45:34;;;;;;;0.00;0.00;;;10.70;76.90;;;;;;4782713;29;20236;-34
2023/12/17 11:48:09;;;;;;;0.00;0.00;;;10.80;77.00;;;;;;4790303;29;20221;-34
2023/12/17 11:50:58;;;;;;;0.00;0.00;;;10.80;77.00;;;;;;4790560;29;20205;-34
2023/12/17 11:53:30;;;;;;;0.00;0.00;;;10.80;77.00;;;;;;4791265;29;20225;-34
2023/12/17 11:56:08;;;;;;;0.00;0.00;;;10.80;77.00;;;;;;4787293;29;20249;-36
2023/12/17 11:58:50;;;;;;;0.00;0.00;;;10.80;77.10;;;;;;4786964;29;20200;-33
2023/12/17 12:01:17;;;;;;;0.00;0.00;;;10.90;77.20;;;;;;4788720;29;20577;-32
2023/12/17 12:03:46;;;;;;;0.00;0.00;;;10.90;77.10;;;;;;4792623;29;20213;-34
2023/12/17 12:06:14;;;;;;;0.00;0.00;;;10.90;77.00;;;;;;4793774;29;20223;-32
2023/12/17 12:08:48;;;;;;;0.00;0.00;;;11.00;77.00;;;;;;4792064;29;20235;-35
2023/12/17 12:11:21;;;;;;;0.00;0.00;;;11.00;76.90;;;;;;4796092;29;20217;-34
2023/12/17 12:13:50;;;;;;;0.00;0.00;;;11.00;76.80;;;;;;4796834;29;20691;-36
2023/12/17 12:16:23;;;;;;;0.00;0.00;;;11.00;77.50;;;;;;4789023;29;20999;-36
2023/12/17 12:19:01;;;;;;;0.00;0.00;;;11.00;76.80;;;;;;4796012;29;20304;-37
2023/12/17 12:21:32;;;;;;;0.00;0.00;;;11.00;76.80;;;;;;4800651;29;20330;-34
2023/12/17 12:24:04;;;;;;;0.00;0.00;;;11.00;76.70;;;;;;4799282;29;20715;-35
2023/12/17 12:26:34;;;;;;;0.00;0.00;;;11.10;76.70;;;;;;4797938;29;20224;-34
2023/12/17 12:29:09;;;;;;;0.00;0.00;;;11.10;76.70;;;;;;4798401;29;20228;-37
2023/12/17 12:31:37;;;;;;;0.00;0.00;;;11.10;76.60;;;;;;4796009;29;20231;-33
2023/12/17 12:34:10;;;;;;;0.00;0.00;;;11.10;76.60;;;;;;4783275;29;20687;-37
2023/12/17 12:36:45;;;;;;;0.00;0.00;;;11.10;76.70;;;;;;4784852;29;20277;-37
2023/12/17 12:39:15;;;;;;;0.00;0.00;;;11.10;76.70;;;;;;4799333;29;20603;-33
2023/12/17 12:41:48;;;;;;;0.00;0.00;;;11.10;76.80;;;;;;4799645;29;20661;-34
2023/12/17 12:44:16;;;;;;;0.00;0.00;;;11.10;76.70;;;;;;4782420;29;20221;-36
2023/12/17 12:46:52;;;;;;;0.00;0.00;;;11.20;76.80;;;;;;4798446;29;20224;-35
2023/12/17 12:49:21;;;;;;;0.00;0.00;;;11.20;76.70;;;;;;4798640;29;20212;-34
2023/12/17 12:51:49;;;;;;;0.00;0.00;;;11.20;76.70;;;;;;4797685;29;20692;-36
2023/12/17 12:54:17;;;;;;;0.00;0.00;;;11.20;76.70;;;;;;4791606;29;20197;-33
2023/12/17 12:56:47;;;;;;;0.00;0.00;;;11.20;76.50;;;;;;4797921;29;20229;-34
2023/12/17 12:59:17;;;;;;;0.00;0.00;;;11.30;76.60;;;;;;4794480;29;20208;-34
2023/12/17 13:01:55;;;;;;;0.00;0.00;;;11.30;76.60;;;;;;4801411;29;20249;-35